This is the latest recevied weather packets stored in our database for station/object KE9DBJ-13. If no packets are shown the sender has not sent any weather packets the latest 10 day(s).
| Time | Temp. | Humidity | Pressure | Rain* | Wind** | Luminosity | Snow |
|---|---|---|---|---|---|---|---|
| 1777396202 | 20.56° C | 82% | 1014.2 hPa | 0 mm | - | - | - |
| 1777395602 | 21.11° C | 79% | 1014.2 hPa | 0 mm | - | - | - |
| 1777395002 | 21.11° C | 82% | 1014.2 hPa | 0 mm | - | - | - |
| 1777394402 | 20.56° C | 84% | 1014.3 hPa | 0 mm | - | - | - |
| 1777393802 | 20° C | 86% | 1014.2 hPa | 0 mm | - | - | - |
| 1777393202 | 20° C | 85% | 1014.1 hPa | 0 mm | - | - | - |
| 1777392602 | 20° C | 86% | 1014 hPa | 0 mm | - | - | - |
| 1777392003 | 20.56° C | 85% | 1013.8 hPa | 0 mm | - | - | - |
| 1777391403 | 20.56° C | 85% | 1013.8 hPa | 0 mm | - | - | - |
| 1777390803 | 20.56° C | 83% | 1013.7 hPa | 0 mm | - | - | - |
| 1777390203 | 20° C | 87% | 1013.4 hPa | 0 mm | - | - | - |
| 1777389603 | 20° C | 87% | 1013.4 hPa | 0 mm | - | - | - |
| 1777389003 | 20° C | 88% | 1013.3 hPa | 0 mm | - | - | - |
| 1777388403 | 20° C | 87% | 1013.4 hPa | 0 mm | - | - | - |
| 1777387803 | 19.44° C | 89% | 1013.4 hPa | 0 mm | - | - | - |
| 1777387203 | 20° C | 90% | 1013.4 hPa | 0 mm | - | - | - |
| 1777386603 | 20° C | 90% | 1013.2 hPa | 0 mm | - | - | - |
| 1777386003 | 19.44° C | 92% | 1013.3 hPa | 0 mm | - | - | - |
| 1777385403 | 19.44° C | 91% | 1013.1 hPa | 0 mm | - | - | - |
| 1777384802 | 19.44° C | 91% | 1012.7 hPa | 0 mm | - | - | - |
| 1777384202 | 19.44° C | 95% | 1012.6 hPa | 0 mm | - | - | - |
| 1777383602 | 18.33° C | 97% | 1012.3 hPa | 0 mm | - | - | - |
| 1777383002 | 17.78° C | 98% | 1012.4 hPa | 0 mm | - | - | - |
| 1777382402 | 17.78° C | 99% | 1012.5 hPa | 0 mm | - | - | - |
| 1777381802 | 17.22° C | 99% | 1012.4 hPa | 0 mm | - | - | - |
* Rain latest hour (hover to see other rain measurements)
** Current wind speed in m/s (hover to see current wind gust speed)